sensor_id;sensor_type;location;lat;lon;timestamp;P1;durP1;ratioP1;P2;durP2;ratioP2
7541;SDS011;3812;50.006;8.230;2022-07-18T00:02:08;4.03;;;2.63;;
7541;SDS011;3812;50.006;8.230;2022-07-18T00:04:35;4.93;;;2.40;;
7541;SDS011;3812;50.006;8.230;2022-07-18T00:07:03;2.27;;;1.83;;
7541;SDS011;3812;50.006;8.230;2022-07-18T00:09:30;4.30;;;2.00;;
7541;SDS011;3812;50.006;8.230;2022-07-18T00:11:57;4.67;;;1.97;;
7541;SDS011;3812;50.006;8.230;2022-07-18T00:14:24;4.90;;;1.90;;
7541;SDS011;3812;50.006;8.230;2022-07-18T00:16:53;2.73;;;1.83;;
7541;SDS011;3812;50.006;8.230;2022-07-18T00:19:20;3.80;;;1.90;;
7541;SDS011;3812;50.006;8.230;2022-07-18T00:21:47;2.37;;;2.00;;
7541;SDS011;3812;50.006;8.230;2022-07-18T00:24:15;1.90;;;1.60;;
7541;SDS011;3812;50.006;8.230;2022-07-18T00:26:42;2.00;;;1.80;;
7541;SDS011;3812;50.006;8.230;2022-07-18T00:29:09;4.33;;;1.77;;
7541;SDS011;3812;50.006;8.230;2022-07-18T00:31:37;2.43;;;1.77;;
7541;SDS011;3812;50.006;8.230;2022-07-18T00:34:05;2.37;;;2.10;;
7541;SDS011;3812;50.006;8.230;2022-07-18T00:36:33;2.33;;;2.13;;
7541;SDS011;3812;50.006;8.230;2022-07-18T00:39:00;4.57;;;1.90;;
7541;SDS011;3812;50.006;8.230;2022-07-18T00:41:27;2.93;;;1.80;;
7541;SDS011;3812;50.006;8.230;2022-07-18T00:43:54;3.10;;;1.90;;
7541;SDS011;3812;50.006;8.230;2022-07-18T00:46:22;3.67;;;1.77;;
7541;SDS011;3812;50.006;8.230;2022-07-18T00:48:50;6.37;;;2.27;;
7541;SDS011;3812;50.006;8.230;2022-07-18T00:51:19;3.50;;;1.90;;
7541;SDS011;3812;50.006;8.230;2022-07-18T00:53:47;3.00;;;1.70;;
7541;SDS011;3812;50.006;8.230;2022-07-18T00:56:15;2.47;;;1.70;;
7541;SDS011;3812;50.006;8.230;2022-07-18T00:58:43;4.97;;;2.23;;
7541;SDS011;3812;50.006;8.230;2022-07-18T01:01:10;3.00;;;1.57;;
7541;SDS011;3812;50.006;8.230;2022-07-18T01:03:55;2.77;;;1.90;;
7541;SDS011;3812;50.006;8.230;2022-07-18T01:06:24;2.33;;;1.90;;
7541;SDS011;3812;50.006;8.230;2022-07-18T01:08:51;2.67;;;2.13;;
7541;SDS011;3812;50.006;8.230;2022-07-18T01:11:19;3.43;;;2.00;;
7541;SDS011;3812;50.006;8.230;2022-07-18T01:13:46;3.20;;;2.13;;
7541;SDS011;3812;50.006;8.230;2022-07-18T01:16:14;3.50;;;2.10;;
7541;SDS011;3812;50.006;8.230;2022-07-18T01:18:43;1.83;;;1.60;;
7541;SDS011;3812;50.006;8.230;2022-07-18T01:21:12;1.87;;;1.70;;
7541;SDS011;3812;50.006;8.230;2022-07-18T01:23:40;2.10;;;1.70;;
7541;SDS011;3812;50.006;8.230;2022-07-18T01:26:07;2.30;;;2.00;;
7541;SDS011;3812;50.006;8.230;2022-07-18T01:28:34;2.60;;;1.90;;
7541;SDS011;3812;50.006;8.230;2022-07-18T01:31:02;2.83;;;1.80;;
7541;SDS011;3812;50.006;8.230;2022-07-18T01:33:30;2.27;;;1.90;;
7541;SDS011;3812;50.006;8.230;2022-07-18T01:35:58;3.07;;;2.77;;
7541;SDS011;3812;50.006;8.230;2022-07-18T01:38:27;1.93;;;1.77;;
7541;SDS011;3812;50.006;8.230;2022-07-18T01:40:54;5.43;;;2.07;;
7541;SDS011;3812;50.006;8.230;2022-07-18T01:43:22;3.00;;;1.80;;
7541;SDS011;3812;50.006;8.230;2022-07-18T01:45:49;4.33;;;2.10;;
7541;SDS011;3812;50.006;8.230;2022-07-18T01:48:16;2.93;;;2.20;;
7541;SDS011;3812;50.006;8.230;2022-07-18T01:50:44;2.53;;;1.97;;
7541;SDS011;3812;50.006;8.230;2022-07-18T01:53:11;3.20;;;2.00;;
7541;SDS011;3812;50.006;8.230;2022-07-18T01:55:40;2.50;;;1.83;;
7541;SDS011;3812;50.006;8.230;2022-07-18T01:58:07;4.00;;;2.03;;
7541;SDS011;3812;50.006;8.230;2022-07-18T02:00:34;2.53;;;1.93;;
7541;SDS011;3812;50.006;8.230;2022-07-18T02:03:02;4.60;;;2.23;;
7541;SDS011;3812;50.006;8.230;2022-07-18T02:05:29;3.53;;;2.20;;
7541;SDS011;3812;50.006;8.230;2022-07-18T02:07:56;1.87;;;1.73;;
7541;SDS011;3812;50.006;8.230;2022-07-18T02:10:24;4.13;;;2.47;;
7541;SDS011;3812;50.006;8.230;2022-07-18T02:12:52;2.40;;;2.00;;
7541;SDS011;3812;50.006;8.230;2022-07-18T02:15:19;3.60;;;2.10;;
7541;SDS011;3812;50.006;8.230;2022-07-18T02:17:47;4.57;;;1.93;;
7541;SDS011;3812;50.006;8.230;2022-07-18T02:20:14;4.73;;;1.90;;
7541;SDS011;3812;50.006;8.230;2022-07-18T02:22:41;4.00;;;1.57;;
7541;SDS011;3812;50.006;8.230;2022-07-18T02:25:09;3.87;;;2.07;;
7541;SDS011;3812;50.006;8.230;2022-07-18T02:27:36;2.43;;;1.67;;
7541;SDS011;3812;50.006;8.230;2022-07-18T02:30:06;2.63;;;1.87;;
7541;SDS011;3812;50.006;8.230;2022-07-18T02:32:33;2.67;;;1.80;;
7541;SDS011;3812;50.006;8.230;2022-07-18T02:35:02;1.70;;;1.60;;
7541;SDS011;3812;50.006;8.230;2022-07-18T02:37:30;2.97;;;1.90;;
7541;SDS011;3812;50.006;8.230;2022-07-18T02:39:57;2.67;;;1.80;;
7541;SDS011;3812;50.006;8.230;2022-07-18T02:42:24;3.43;;;1.63;;
7541;SDS011;3812;50.006;8.230;2022-07-18T02:44:52;2.07;;;1.70;;
7541;SDS011;3812;50.006;8.230;2022-07-18T02:47:21;1.87;;;1.70;;
7541;SDS011;3812;50.006;8.230;2022-07-18T02:49:48;1.90;;;1.70;;
7541;SDS011;3812;50.006;8.230;2022-07-18T02:52:15;2.37;;;1.70;;
7541;SDS011;3812;50.006;8.230;2022-07-18T02:54:43;2.47;;;1.63;;
7541;SDS011;3812;50.006;8.230;2022-07-18T02:57:10;3.30;;;1.60;;
7541;SDS011;3812;50.006;8.230;2022-07-18T02:59:37;2.17;;;1.60;;
7541;SDS011;3812;50.006;8.230;2022-07-18T03:02:05;1.70;;;1.50;;
7541;SDS011;3812;50.006;8.230;2022-07-18T03:04:33;1.63;;;1.50;;
7541;SDS011;3812;50.006;8.230;2022-07-18T03:07:01;2.47;;;2.20;;
7541;SDS011;3812;50.006;8.230;2022-07-18T03:09:28;2.77;;;1.80;;
7541;SDS011;3812;50.006;8.230;2022-07-18T03:11:55;2.87;;;1.53;;
7541;SDS011;3812;50.006;8.230;2022-07-18T03:14:23;2.90;;;1.60;;
7541;SDS011;3812;50.006;8.230;2022-07-18T03:16:50;4.03;;;1.93;;
7541;SDS011;3812;50.006;8.230;2022-07-18T03:19:17;2.00;;;1.60;;
7541;SDS011;3812;50.006;8.230;2022-07-18T03:21:47;3.00;;;1.70;;
7541;SDS011;3812;50.006;8.230;2022-07-18T03:24:14;1.83;;;1.70;;
7541;SDS011;3812;50.006;8.230;2022-07-18T03:26:42;5.20;;;1.70;;
7541;SDS011;3812;50.006;8.230;2022-07-18T03:29:09;1.60;;;1.50;;
7541;SDS011;3812;50.006;8.230;2022-07-18T03:31:36;1.90;;;1.80;;
7541;SDS011;3812;50.006;8.230;2022-07-18T03:34:03;8.03;;;1.90;;
7541;SDS011;3812;50.006;8.230;2022-07-18T03:36:31;5.80;;;2.00;;
7541;SDS011;3812;50.006;8.230;2022-07-18T03:38:59;2.20;;;2.00;;
7541;SDS011;3812;50.006;8.230;2022-07-18T03:41:26;2.70;;;1.63;;
7541;SDS011;3812;50.006;8.230;2022-07-18T03:43:54;4.30;;;1.90;;
7541;SDS011;3812;50.006;8.230;2022-07-18T03:46:21;1.63;;;1.50;;
7541;SDS011;3812;50.006;8.230;2022-07-18T03:48:48;1.70;;;1.60;;
7541;SDS011;3812;50.006;8.230;2022-07-18T03:51:15;5.40;;;1.97;;
7541;SDS011;3812;50.006;8.230;2022-07-18T03:53:43;2.80;;;1.70;;
7541;SDS011;3812;50.006;8.230;2022-07-18T03:56:11;2.40;;;1.70;;
7541;SDS011;3812;50.006;8.230;2022-07-18T03:58:38;2.80;;;2.07;;
7541;SDS011;3812;50.006;8.230;2022-07-18T04:01:06;3.33;;;2.23;;
7541;SDS011;3812;50.006;8.230;2022-07-18T04:03:33;3.90;;;2.37;;
7541;SDS011;3812;50.006;8.230;2022-07-18T04:06:00;6.53;;;1.60;;
7541;SDS011;3812;50.006;8.230;2022-07-18T04:08:27;3.23;;;1.50;;
7541;SDS011;3812;50.006;8.230;2022-07-18T04:10:55;2.70;;;1.73;;
7541;SDS011;3812;50.006;8.230;2022-07-18T04:13:23;1.70;;;1.60;;
7541;SDS011;3812;50.006;8.230;2022-07-18T04:15:51;3.17;;;1.90;;
7541;SDS011;3812;50.006;8.230;2022-07-18T04:18:18;3.20;;;1.90;;
7541;SDS011;3812;50.006;8.230;2022-07-18T04:20:45;3.60;;;1.57;;
7541;SDS011;3812;50.006;8.230;2022-07-18T04:23:12;1.90;;;1.70;;
7541;SDS011;3812;50.006;8.230;2022-07-18T04:25:40;2.13;;;1.80;;
7541;SDS011;3812;50.006;8.230;2022-07-18T04:28:08;1.90;;;1.70;;
7541;SDS011;3812;50.006;8.230;2022-07-18T04:30:37;2.30;;;1.60;;
7541;SDS011;3812;50.006;8.230;2022-07-18T04:33:06;2.63;;;1.83;;
7541;SDS011;3812;50.006;8.230;2022-07-18T04:35:34;2.37;;;1.63;;
7541;SDS011;3812;50.006;8.230;2022-07-18T04:38:03;7.10;;;2.00;;
7541;SDS011;3812;50.006;8.230;2022-07-18T04:40:30;1.83;;;1.73;;
7541;SDS011;3812;50.006;8.230;2022-07-18T04:42:57;2.77;;;2.00;;
7541;SDS011;3812;50.006;8.230;2022-07-18T04:45:25;2.03;;;1.70;;
7541;SDS011;3812;50.006;8.230;2022-07-18T04:47:53;4.13;;;2.00;;
7541;SDS011;3812;50.006;8.230;2022-07-18T04:50:21;2.73;;;1.73;;
7541;SDS011;3812;50.006;8.230;2022-07-18T04:52:49;2.60;;;1.80;;
7541;SDS011;3812;50.006;8.230;2022-07-18T04:55:18;3.43;;;1.60;;
7541;SDS011;3812;50.006;8.230;2022-07-18T04:57:46;2.40;;;1.50;;
7541;SDS011;3812;50.006;8.230;2022-07-18T05:00:14;3.13;;;2.00;;
7541;SDS011;3812;50.006;8.230;2022-07-18T05:02:42;2.93;;;1.53;;
7541;SDS011;3812;50.006;8.230;2022-07-18T05:05:11;1.80;;;1.70;;
7541;SDS011;3812;50.006;8.230;2022-07-18T05:07:39;3.23;;;1.70;;
7541;SDS011;3812;50.006;8.230;2022-07-18T05:10:07;2.57;;;1.87;;
7541;SDS011;3812;50.006;8.230;2022-07-18T05:12:34;3.87;;;1.70;;
7541;SDS011;3812;50.006;8.230;2022-07-18T05:15:03;2.10;;;1.80;;
7541;SDS011;3812;50.006;8.230;2022-07-18T05:17:31;4.73;;;1.80;;
7541;SDS011;3812;50.006;8.230;2022-07-18T05:19:59;1.60;;;1.50;;
7541;SDS011;3812;50.006;8.230;2022-07-18T05:22:27;3.63;;;1.90;;
7541;SDS011;3812;50.006;8.230;2022-07-18T05:24:54;3.63;;;1.60;;
7541;SDS011;3812;50.006;8.230;2022-07-18T05:27:22;3.53;;;1.60;;
7541;SDS011;3812;50.006;8.230;2022-07-18T05:29:49;6.30;;;1.93;;
7541;SDS011;3812;50.006;8.230;2022-07-18T05:32:16;3.43;;;1.87;;
7541;SDS011;3812;50.006;8.230;2022-07-18T05:34:43;2.83;;;1.90;;
7541;SDS011;3812;50.006;8.230;2022-07-18T05:37:11;1.63;;;1.50;;
7541;SDS011;3812;50.006;8.230;2022-07-18T05:39:39;5.90;;;2.20;;
7541;SDS011;3812;50.006;8.230;2022-07-18T05:42:06;1.90;;;1.60;;
7541;SDS011;3812;50.006;8.230;2022-07-18T05:44:34;3.47;;;1.80;;
7541;SDS011;3812;50.006;8.230;2022-07-18T05:47:01;2.80;;;1.73;;
7541;SDS011;3812;50.006;8.230;2022-07-18T05:49:28;3.70;;;1.93;;
7541;SDS011;3812;50.006;8.230;2022-07-18T05:51:55;1.93;;;1.50;;
7541;SDS011;3812;50.006;8.230;2022-07-18T05:54:23;1.90;;;1.67;;
7541;SDS011;3812;50.006;8.230;2022-07-18T05:56:52;2.60;;;1.80;;
7541;SDS011;3812;50.006;8.230;2022-07-18T05:59:19;3.40;;;1.90;;
7541;SDS011;3812;50.006;8.230;2022-07-18T06:01:49;3.90;;;1.67;;
7541;SDS011;3812;50.006;8.230;2022-07-18T06:04:16;3.20;;;1.80;;
7541;SDS011;3812;50.006;8.230;2022-07-18T06:06:43;2.83;;;1.37;;
7541;SDS011;3812;50.006;8.230;2022-07-18T06:09:10;3.20;;;1.37;;
7541;SDS011;3812;50.006;8.230;2022-07-18T06:11:38;2.27;;;1.57;;
7541;SDS011;3812;50.006;8.230;2022-07-18T06:14:07;3.27;;;1.50;;
7541;SDS011;3812;50.006;8.230;2022-07-18T06:16:34;2.87;;;1.60;;
7541;SDS011;3812;50.006;8.230;2022-07-18T06:19:02;3.47;;;1.50;;
7541;SDS011;3812;50.006;8.230;2022-07-18T06:21:29;2.83;;;1.30;;
7541;SDS011;3812;50.006;8.230;2022-07-18T06:23:56;3.27;;;1.30;;
7541;SDS011;3812;50.006;8.230;2022-07-18T06:26:24;2.57;;;1.30;;
7541;SDS011;3812;50.006;8.230;2022-07-18T06:28:51;1.97;;;1.30;;
7541;SDS011;3812;50.006;8.230;2022-07-18T06:31:19;2.17;;;1.30;;
7541;SDS011;3812;50.006;8.230;2022-07-18T06:33:47;3.80;;;1.17;;
7541;SDS011;3812;50.006;8.230;2022-07-18T06:36:14;3.53;;;1.47;;
7541;SDS011;3812;50.006;8.230;2022-07-18T06:38:42;2.83;;;1.20;;
7541;SDS011;3812;50.006;8.230;2022-07-18T06:41:10;1.40;;;1.27;;
7541;SDS011;3812;50.006;8.230;2022-07-18T06:43:37;3.30;;;1.33;;
7541;SDS011;3812;50.006;8.230;2022-07-18T06:46:05;2.20;;;1.30;;
7541;SDS011;3812;50.006;8.230;2022-07-18T06:48:33;3.43;;;1.40;;
7541;SDS011;3812;50.006;8.230;2022-07-18T06:51:00;2.67;;;1.30;;
7541;SDS011;3812;50.006;8.230;2022-07-18T06:53:28;1.60;;;1.43;;
7541;SDS011;3812;50.006;8.230;2022-07-18T06:55:55;1.90;;;1.20;;
7541;SDS011;3812;50.006;8.230;2022-07-18T06:58:22;1.60;;;1.20;;
7541;SDS011;3812;50.006;8.230;2022-07-18T07:00:50;3.80;;;1.53;;
7541;SDS011;3812;50.006;8.230;2022-07-18T07:03:18;1.50;;;1.30;;
7541;SDS011;3812;50.006;8.230;2022-07-18T07:05:46;3.77;;;1.30;;
7541;SDS011;3812;50.006;8.230;2022-07-18T07:08:13;1.50;;;1.40;;
7541;SDS011;3812;50.006;8.230;2022-07-18T07:10:41;3.00;;;1.50;;
7541;SDS011;3812;50.006;8.230;2022-07-18T07:13:08;3.87;;;1.43;;
7541;SDS011;3812;50.006;8.230;2022-07-18T07:15:35;2.63;;;1.60;;
7541;SDS011;3812;50.006;8.230;2022-07-18T07:18:02;2.30;;;1.37;;
7541;SDS011;3812;50.006;8.230;2022-07-18T07:20:30;3.80;;;1.30;;
7541;SDS011;3812;50.006;8.230;2022-07-18T07:22:58;2.63;;;1.87;;
7541;SDS011;3812;50.006;8.230;2022-07-18T07:25:30;2.70;;;1.83;;
7541;SDS011;3812;50.006;8.230;2022-07-18T07:27:57;3.00;;;1.10;;
7541;SDS011;3812;50.006;8.230;2022-07-18T07:30:24;2.53;;;1.60;;
7541;SDS011;3812;50.006;8.230;2022-07-18T07:32:51;3.47;;;1.37;;
7541;SDS011;3812;50.006;8.230;2022-07-18T07:35:19;2.50;;;1.83;;
7541;SDS011;3812;50.006;8.230;2022-07-18T07:37:47;2.17;;;1.40;;
7541;SDS011;3812;50.006;8.230;2022-07-18T07:40:16;6.00;;;1.73;;
7541;SDS011;3812;50.006;8.230;2022-07-18T07:42:44;3.47;;;1.60;;
7541;SDS011;3812;50.006;8.230;2022-07-18T07:45:11;2.10;;;1.30;;
7541;SDS011;3812;50.006;8.230;2022-07-18T07:47:39;3.57;;;1.40;;
7541;SDS011;3812;50.006;8.230;2022-07-18T07:50:08;2.33;;;1.40;;
7541;SDS011;3812;50.006;8.230;2022-07-18T07:52:35;2.87;;;1.30;;
7541;SDS011;3812;50.006;8.230;2022-07-18T07:55:03;5.60;;;1.60;;
7541;SDS011;3812;50.006;8.230;2022-07-18T07:57:32;2.80;;;1.23;;
7541;SDS011;3812;50.006;8.230;2022-07-18T08:00:02;2.60;;;1.50;;
7541;SDS011;3812;50.006;8.230;2022-07-18T08:02:37;6.00;;;1.43;;
7541;SDS011;3812;50.006;8.230;2022-07-18T08:05:04;5.73;;;1.73;;
7541;SDS011;3812;50.006;8.230;2022-07-18T08:07:31;2.77;;;1.63;;
7541;SDS011;3812;50.006;8.230;2022-07-18T08:09:59;2.40;;;1.43;;
7541;SDS011;3812;50.006;8.230;2022-07-18T08:12:26;2.67;;;1.40;;
7541;SDS011;3812;50.006;8.230;2022-07-18T08:14:54;5.47;;;1.43;;
7541;SDS011;3812;50.006;8.230;2022-07-18T08:17:22;2.27;;;1.30;;
7541;SDS011;3812;50.006;8.230;2022-07-18T08:19:49;3.40;;;2.13;;
7541;SDS011;3812;50.006;8.230;2022-07-18T08:22:16;3.83;;;1.60;;
7541;SDS011;3812;50.006;8.230;2022-07-18T08:24:44;3.70;;;1.47;;
7541;SDS011;3812;50.006;8.230;2022-07-18T08:27:11;3.23;;;1.40;;
7541;SDS011;3812;50.006;8.230;2022-07-18T08:29:38;2.30;;;1.30;;
7541;SDS011;3812;50.006;8.230;2022-07-18T08:32:07;2.43;;;1.20;;
7541;SDS011;3812;50.006;8.230;2022-07-18T08:34:34;2.83;;;1.50;;
7541;SDS011;3812;50.006;8.230;2022-07-18T08:37:01;3.03;;;1.20;;
7541;SDS011;3812;50.006;8.230;2022-07-18T08:39:29;2.53;;;1.23;;
7541;SDS011;3812;50.006;8.230;2022-07-18T08:41:56;3.27;;;1.33;;
7541;SDS011;3812;50.006;8.230;2022-07-18T08:44:27;3.63;;;1.37;;
7541;SDS011;3812;50.006;8.230;2022-07-18T08:46:54;2.83;;;1.30;;
7541;SDS011;3812;50.006;8.230;2022-07-18T08:49:25;4.10;;;1.20;;
7541;SDS011;3812;50.006;8.230;2022-07-18T08:51:52;1.77;;;1.20;;
7541;SDS011;3812;50.006;8.230;2022-07-18T08:54:20;4.50;;;1.30;;
7541;SDS011;3812;50.006;8.230;2022-07-18T08:56:47;2.67;;;1.30;;
7541;SDS011;3812;50.006;8.230;2022-07-18T08:59:15;2.60;;;1.40;;
7541;SDS011;3812;50.006;8.230;2022-07-18T09:01:42;3.03;;;1.67;;
7541;SDS011;3812;50.006;8.230;2022-07-18T09:04:09;2.90;;;1.33;;
7541;SDS011;3812;50.006;8.230;2022-07-18T09:06:47;1.47;;;1.03;;
7541;SDS011;3812;50.006;8.230;2022-07-18T09:09:15;3.47;;;1.40;;
7541;SDS011;3812;50.006;8.230;2022-07-18T09:11:52;4.67;;;1.57;;
7541;SDS011;3812;50.006;8.230;2022-07-18T09:14:33;1.83;;;1.20;;
7541;SDS011;3812;50.006;8.230;2022-07-18T09:17:02;2.90;;;1.40;;
7541;SDS011;3812;50.006;8.230;2022-07-18T09:19:30;1.87;;;1.00;;
7541;SDS011;3812;50.006;8.230;2022-07-18T09:22:18;2.37;;;1.20;;
7541;SDS011;3812;50.006;8.230;2022-07-18T09:24:53;1.20;;;1.10;;
7541;SDS011;3812;50.006;8.230;2022-07-18T09:27:24;3.17;;;1.30;;
7541;SDS011;3812;50.006;8.230;2022-07-18T09:32:47;2.50;;;1.40;;
7541;SDS011;3812;50.006;8.230;2022-07-18T09:35:17;2.93;;;1.20;;
7541;SDS011;3812;50.006;8.230;2022-07-18T09:37:59;2.77;;;1.23;;
7541;SDS011;3812;50.006;8.230;2022-07-18T09:40:28;1.40;;;1.23;;
7541;SDS011;3812;50.006;8.230;2022-07-18T09:42:56;1.57;;;1.20;;
7541;SDS011;3812;50.006;8.230;2022-07-18T09:45:24;2.47;;;1.10;;
7541;SDS011;3812;50.006;8.230;2022-07-18T09:47:52;4.67;;;1.60;;
7541;SDS011;3812;50.006;8.230;2022-07-18T09:50:24;5.73;;;1.10;;
7541;SDS011;3812;50.006;8.230;2022-07-18T09:52:56;3.40;;;1.10;;
7541;SDS011;3812;50.006;8.230;2022-07-18T09:55:24;4.13;;;1.30;;
7541;SDS011;3812;50.006;8.230;2022-07-18T09:57:59;5.13;;;1.20;;
7541;SDS011;3812;50.006;8.230;2022-07-18T10:00:29;3.07;;;1.43;;
7541;SDS011;3812;50.006;8.230;2022-07-18T10:02:57;3.47;;;1.40;;
7541;SDS011;3812;50.006;8.230;2022-07-18T10:05:28;2.33;;;1.30;;
7541;SDS011;3812;50.006;8.230;2022-07-18T10:07:56;1.47;;;1.10;;
7541;SDS011;3812;50.006;8.230;2022-07-18T10:10:25;1.67;;;1.23;;
7541;SDS011;3812;50.006;8.230;2022-07-18T10:12:53;2.07;;;1.67;;
7541;SDS011;3812;50.006;8.230;2022-07-18T10:15:21;2.67;;;1.20;;
7541;SDS011;3812;50.006;8.230;2022-07-18T10:17:49;1.23;;;1.10;;
7541;SDS011;3812;50.006;8.230;2022-07-18T10:20:16;2.33;;;1.17;;
7541;SDS011;3812;50.006;8.230;2022-07-18T10:22:43;3.37;;;1.20;;
7541;SDS011;3812;50.006;8.230;2022-07-18T10:25:12;3.43;;;1.50;;
7541;SDS011;3812;50.006;8.230;2022-07-18T10:27:50;2.37;;;1.20;;
7541;SDS011;3812;50.006;8.230;2022-07-18T10:30:19;3.67;;;1.40;;
7541;SDS011;3812;50.006;8.230;2022-07-18T10:32:55;4.37;;;1.13;;
7541;SDS011;3812;50.006;8.230;2022-07-18T10:38:18;2.17;;;1.30;;
7541;SDS011;3812;50.006;8.230;2022-07-18T10:41:00;1.23;;;0.97;;
7541;SDS011;3812;50.006;8.230;2022-07-18T10:43:32;2.13;;;1.10;;
7541;SDS011;3812;50.006;8.230;2022-07-18T10:46:00;2.47;;;1.17;;
7541;SDS011;3812;50.006;8.230;2022-07-18T10:51:10;1.93;;;0.90;;
7541;SDS011;3812;50.006;8.230;2022-07-18T10:53:54;1.27;;;1.00;;
7541;SDS011;3812;50.006;8.230;2022-07-18T10:56:22;2.03;;;1.00;;
7541;SDS011;3812;50.006;8.230;2022-07-18T10:59:17;2.27;;;1.10;;
7541;SDS011;3812;50.006;8.230;2022-07-18T11:01:47;3.37;;;1.10;;
7541;SDS011;3812;50.006;8.230;2022-07-18T11:04:21;1.57;;;1.17;;
7541;SDS011;3812;50.006;8.230;2022-07-18T11:06:52;1.50;;;1.20;;
7541;SDS011;3812;50.006;8.230;2022-07-18T11:09:29;2.57;;;1.30;;
7541;SDS011;3812;50.006;8.230;2022-07-18T11:12:20;1.87;;;1.23;;
7541;SDS011;3812;50.006;8.230;2022-07-18T11:17:59;2.90;;;0.97;;
7541;SDS011;3812;50.006;8.230;2022-07-18T11:20:34;3.23;;;0.93;;
7541;SDS011;3812;50.006;8.230;2022-07-18T11:23:02;1.13;;;0.90;;
7541;SDS011;3812;50.006;8.230;2022-07-18T11:25:30;1.43;;;1.33;;
7541;SDS011;3812;50.006;8.230;2022-07-18T11:27:57;1.80;;;1.10;;
7541;SDS011;3812;50.006;8.230;2022-07-18T11:30:25;3.03;;;1.05;;
7541;SDS011;3812;50.006;8.230;2022-07-18T11:32:52;2.08;;;1.30;;
7541;SDS011;3812;50.006;8.230;2022-07-18T11:35:24;1.45;;;1.00;;
7541;SDS011;3812;50.006;8.230;2022-07-18T11:37:51;2.35;;;1.25;;
7541;SDS011;3812;50.006;8.230;2022-07-18T11:40:20;1.88;;;1.02;;
7541;SDS011;3812;50.006;8.230;2022-07-18T11:42:48;1.08;;;0.90;;
7541;SDS011;3812;50.006;8.230;2022-07-18T11:45:15;1.85;;;1.00;;
7541;SDS011;3812;50.006;8.230;2022-07-18T11:47:46;2.70;;;1.10;;
7541;SDS011;3812;50.006;8.230;2022-07-18T11:50:15;2.47;;;1.10;;
7541;SDS011;3812;50.006;8.230;2022-07-18T11:52:44;1.77;;;1.20;;
7541;SDS011;3812;50.006;8.230;2022-07-18T11:55:12;1.80;;;1.00;;
7541;SDS011;3812;50.006;8.230;2022-07-18T11:57:40;1.85;;;1.00;;
7541;SDS011;3812;50.006;8.230;2022-07-18T12:00:13;2.35;;;1.10;;
7541;SDS011;3812;50.006;8.230;2022-07-18T12:02:41;0.90;;;0.90;;
7541;SDS011;3812;50.006;8.230;2022-07-18T12:05:08;1.10;;;0.90;;
7541;SDS011;3812;50.006;8.230;2022-07-18T12:07:35;1.45;;;1.20;;
7541;SDS011;3812;50.006;8.230;2022-07-18T12:10:15;2.60;;;1.10;;
7541;SDS011;3812;50.006;8.230;2022-07-18T12:12:43;2.63;;;1.02;;
7541;SDS011;3812;50.006;8.230;2022-07-18T12:15:10;2.10;;;1.10;;
7541;SDS011;3812;50.006;8.230;2022-07-18T12:17:44;2.55;;;1.08;;
7541;SDS011;3812;50.006;8.230;2022-07-18T12:20:12;1.67;;;0.80;;
7541;SDS011;3812;50.006;8.230;2022-07-18T12:28:27;4.63;;;1.60;;
7541;SDS011;3812;50.006;8.230;2022-07-18T12:30:54;3.38;;;0.90;;
7541;SDS011;3812;50.006;8.230;2022-07-18T12:33:22;1.67;;;1.20;;
7541;SDS011;3812;50.006;8.230;2022-07-18T12:35:56;5.05;;;1.30;;
7541;SDS011;3812;50.006;8.230;2022-07-18T12:38:23;1.20;;;1.10;;
7541;SDS011;3812;50.006;8.230;2022-07-18T12:40:51;1.55;;;0.93;;
7541;SDS011;3812;50.006;8.230;2022-07-18T12:43:22;1.20;;;1.10;;
7541;SDS011;3812;50.006;8.230;2022-07-18T12:45:51;2.38;;;1.00;;
7541;SDS011;3812;50.006;8.230;2022-07-18T12:48:19;1.30;;;0.98;;
7541;SDS011;3812;50.006;8.230;2022-07-18T12:50:54;1.90;;;1.15;;
7541;SDS011;3812;50.006;8.230;2022-07-18T12:53:21;2.00;;;1.20;;
7541;SDS011;3812;50.006;8.230;2022-07-18T12:55:49;2.10;;;1.17;;
7541;SDS011;3812;50.006;8.230;2022-07-18T12:58:16;2.50;;;1.20;;
7541;SDS011;3812;50.006;8.230;2022-07-18T13:00:43;1.95;;;0.88;;
7541;SDS011;3812;50.006;8.230;2022-07-18T13:03:14;1.08;;;0.90;;
7541;SDS011;3812;50.006;8.230;2022-07-18T13:05:41;1.45;;;1.10;;
7541;SDS011;3812;50.006;8.230;2022-07-18T13:08:09;3.97;;;1.00;;
7541;SDS011;3812;50.006;8.230;2022-07-18T13:10:37;1.80;;;1.10;;
7541;SDS011;3812;50.006;8.230;2022-07-18T13:13:05;1.25;;;0.95;;
7541;SDS011;3812;50.006;8.230;2022-07-18T13:15:32;1.30;;;1.20;;
7541;SDS011;3812;50.006;8.230;2022-07-18T13:18:00;1.60;;;1.23;;
7541;SDS011;3812;50.006;8.230;2022-07-18T13:20:29;1.20;;;1.10;;
7541;SDS011;3812;50.006;8.230;2022-07-18T13:22:56;1.30;;;0.95;;
7541;SDS011;3812;50.006;8.230;2022-07-18T13:25:26;1.38;;;1.10;;
7541;SDS011;3812;50.006;8.230;2022-07-18T13:27:53;1.88;;;1.10;;
7541;SDS011;3812;50.006;8.230;2022-07-18T13:30:21;2.83;;;1.08;;
7541;SDS011;3812;50.006;8.230;2022-07-18T13:32:48;1.75;;;1.10;;
7541;SDS011;3812;50.006;8.230;2022-07-18T13:35:15;3.50;;;1.00;;
7541;SDS011;3812;50.006;8.230;2022-07-18T13:37:44;1.55;;;1.10;;
7541;SDS011;3812;50.006;8.230;2022-07-18T13:40:12;1.48;;;1.08;;
7541;SDS011;3812;50.006;8.230;2022-07-18T13:42:40;1.75;;;1.13;;
7541;SDS011;3812;50.006;8.230;2022-07-18T13:45:08;1.25;;;1.10;;
7541;SDS011;3812;50.006;8.230;2022-07-18T13:47:35;2.25;;;1.20;;
7541;SDS011;3812;50.006;8.230;2022-07-18T13:50:03;1.75;;;0.98;;
7541;SDS011;3812;50.006;8.230;2022-07-18T13:52:31;0.93;;;0.93;;
7541;SDS011;3812;50.006;8.230;2022-07-18T13:54:59;2.35;;;1.05;;
7541;SDS011;3812;50.006;8.230;2022-07-18T13:57:27;0.95;;;0.93;;
7541;SDS011;3812;50.006;8.230;2022-07-18T13:59:53;3.30;;;1.10;;
7541;SDS011;3812;50.006;8.230;2022-07-18T14:02:20;1.27;;;0.90;;
7541;SDS011;3812;50.006;8.230;2022-07-18T14:04:48;1.58;;;1.10;;
7541;SDS011;3812;50.006;8.230;2022-07-18T14:07:15;1.98;;;0.90;;
7541;SDS011;3812;50.006;8.230;2022-07-18T14:09:43;2.10;;;1.05;;
7541;SDS011;3812;50.006;8.230;2022-07-18T14:12:12;3.58;;;1.10;;
7541;SDS011;3812;50.006;8.230;2022-07-18T14:14:39;1.63;;;0.93;;
7541;SDS011;3812;50.006;8.230;2022-07-18T14:17:05;2.03;;;1.00;;
7541;SDS011;3812;50.006;8.230;2022-07-18T14:19:32;2.25;;;1.00;;
7541;SDS011;3812;50.006;8.230;2022-07-18T14:22:02;1.02;;;0.93;;
7541;SDS011;3812;50.006;8.230;2022-07-18T14:24:29;5.20;;;1.23;;
7541;SDS011;3812;50.006;8.230;2022-07-18T14:26:56;1.10;;;0.88;;
7541;SDS011;3812;50.006;8.230;2022-07-18T14:29:24;3.42;;;1.05;;
7541;SDS011;3812;50.006;8.230;2022-07-18T14:31:51;2.80;;;1.35;;
7541;SDS011;3812;50.006;8.230;2022-07-18T14:34:18;3.42;;;1.20;;
7541;SDS011;3812;50.006;8.230;2022-07-18T14:36:45;1.17;;;1.08;;
7541;SDS011;3812;50.006;8.230;2022-07-18T14:39:12;1.35;;;1.08;;
7541;SDS011;3812;50.006;8.230;2022-07-18T14:41:39;1.88;;;1.23;;
7541;SDS011;3812;50.006;8.230;2022-07-18T14:44:06;1.00;;;1.00;;
7541;SDS011;3812;50.006;8.230;2022-07-18T14:46:34;2.67;;;1.20;;
7541;SDS011;3812;50.006;8.230;2022-07-18T14:49:01;2.03;;;1.30;;
7541;SDS011;3812;50.006;8.230;2022-07-18T14:51:28;1.92;;;1.13;;
7541;SDS011;3812;50.006;8.230;2022-07-18T14:53:55;1.10;;;1.00;;
7541;SDS011;3812;50.006;8.230;2022-07-18T14:56:22;3.75;;;1.00;;
7541;SDS011;3812;50.006;8.230;2022-07-18T14:58:50;1.98;;;1.20;;
7541;SDS011;3812;50.006;8.230;2022-07-18T15:01:17;2.22;;;1.02;;
7541;SDS011;3812;50.006;8.230;2022-07-18T15:03:46;3.78;;;1.05;;
7541;SDS011;3812;50.006;8.230;2022-07-18T15:06:13;1.52;;;1.13;;
7541;SDS011;3812;50.006;8.230;2022-07-18T15:08:40;1.50;;;1.20;;
7541;SDS011;3812;50.006;8.230;2022-07-18T15:11:07;1.23;;;1.10;;
7541;SDS011;3812;50.006;8.230;2022-07-18T15:13:34;4.00;;;1.27;;
7541;SDS011;3812;50.006;8.230;2022-07-18T15:16:01;2.70;;;1.25;;
7541;SDS011;3812;50.006;8.230;2022-07-18T15:18:28;1.00;;;1.00;;
7541;SDS011;3812;50.006;8.230;2022-07-18T15:20:56;2.00;;;1.42;;
7541;SDS011;3812;50.006;8.230;2022-07-18T15:23:23;2.83;;;1.30;;
7541;SDS011;3812;50.006;8.230;2022-07-18T15:25:50;3.67;;;1.40;;
7541;SDS011;3812;50.006;8.230;2022-07-18T15:28:17;1.33;;;1.25;;
7541;SDS011;3812;50.006;8.230;2022-07-18T15:30:46;1.52;;;1.42;;
7541;SDS011;3812;50.006;8.230;2022-07-18T15:33:13;1.73;;;1.63;;
7541;SDS011;3812;50.006;8.230;2022-07-18T15:35:41;1.88;;;1.25;;
7541;SDS011;3812;50.006;8.230;2022-07-18T15:38:09;4.20;;;1.73;;
7541;SDS011;3812;50.006;8.230;2022-07-18T15:40:36;1.30;;;1.20;;